sensor_id;sensor_type;location;lat;lon;timestamp;pressure;altitude;pressure_sealevel;temperature;humidity
25232;BME280;13176;51.140;6.290;2023-07-31T00:02:10;100314.56;;;19.18;95.38
25232;BME280;13176;51.140;6.290;2023-07-31T00:04:36;100359.47;;;19.50;95.60
25232;BME280;13176;51.140;6.290;2023-07-31T00:07:03;100475.31;;;19.93;95.48
25232;BME280;13176;51.140;6.290;2023-07-31T00:09:30;100481.34;;;20.12;95.19
25232;BME280;13176;51.140;6.290;2023-07-31T00:11:57;100274.25;;;19.13;93.49
25232;BME280;13176;51.140;6.290;2023-07-31T00:14:23;100449.44;;;20.13;93.82
25232;BME280;13176;51.140;6.290;2023-07-31T00:16:50;100473.47;;;20.10;94.42
25232;BME280;13176;51.140;6.290;2023-07-31T00:19:19;100397.28;;;19.67;93.67
25232;BME280;13176;51.140;6.290;2023-07-31T00:21:45;100355.69;;;19.39;93.11
25232;BME280;13176;51.140;6.290;2023-07-31T00:24:11;100346.66;;;19.43;92.68
25232;BME280;13176;51.140;6.290;2023-07-31T00:26:38;100342.91;;;19.47;92.19
25232;BME280;13176;51.140;6.290;2023-07-31T00:29:05;100469.19;;;20.23;91.88
25232;BME280;13176;51.140;6.290;2023-07-31T00:31:31;100405.94;;;19.55;92.23
25232;BME280;13176;51.140;6.290;2023-07-31T00:33:58;100441.16;;;20.19;91.10
25232;BME280;13176;51.140;6.290;2023-07-31T00:36:24;100366.13;;;19.72;90.57
25232;BME280;13176;51.140;6.290;2023-07-31T00:38:51;100331.28;;;19.34;91.45
25232;BME280;13176;51.140;6.290;2023-07-31T00:41:17;100472.34;;;20.14;91.29
25232;BME280;13176;51.140;6.290;2023-07-31T00:43:44;100373.66;;;19.64;90.89
25232;BME280;13176;51.140;6.290;2023-07-31T00:46:10;100257.50;;;18.97;90.64
25232;BME280;13176;51.140;6.290;2023-07-31T00:48:37;100416.66;;;20.00;90.24
25232;BME280;13176;51.140;6.290;2023-07-31T00:51:06;100390.03;;;19.86;89.79
25232;BME280;13176;51.140;6.290;2023-07-31T00:53:34;100374.16;;;19.86;89.56
25232;BME280;13176;51.140;6.290;2023-07-31T00:56:03;100453.13;;;20.26;89.99
25232;BME280;13176;51.140;6.290;2023-07-31T00:58:31;100434.50;;;20.12;88.90
25232;BME280;13176;51.140;6.290;2023-07-31T01:00:58;100355.47;;;19.58;88.69
25232;BME280;13176;51.140;6.290;2023-07-31T01:03:24;100451.78;;;20.04;89.11
25232;BME280;13176;51.140;6.290;2023-07-31T01:06:30;100461.66;;;20.31;87.98
25232;BME280;13176;51.140;6.290;2023-07-31T01:09:03;100460.59;;;20.49;87.28
25232;BME280;13176;51.140;6.290;2023-07-31T01:11:34;100326.34;;;19.58;87.44
25232;BME280;13176;51.140;6.290;2023-07-31T01:14:03;100313.19;;;19.42;87.44
25232;BME280;13176;51.140;6.290;2023-07-31T01:16:30;100335.13;;;19.44;87.38
25232;BME280;13176;51.140;6.290;2023-07-31T01:18:56;100423.03;;;19.96;86.68
25232;BME280;13176;51.140;6.290;2023-07-31T01:24:14;100452.78;;;20.17;86.34
25232;BME280;13176;51.140;6.290;2023-07-31T01:26:52;100437.41;;;20.08;86.35
25232;BME280;13176;51.140;6.290;2023-07-31T01:29:36;100439.97;;;20.09;85.79
25232;BME280;13176;51.140;6.290;2023-07-31T01:32:04;100452.59;;;20.35;85.97
25232;BME280;13176;51.140;6.290;2023-07-31T01:34:33;100340.88;;;19.52;86.02
25232;BME280;13176;51.140;6.290;2023-07-31T01:37:01;100385.19;;;20.10;84.84
25232;BME280;13176;51.140;6.290;2023-07-31T01:39:27;100417.13;;;20.22;85.23
25232;BME280;13176;51.140;6.290;2023-07-31T01:41:53;100305.50;;;19.52;85.40
25232;BME280;13176;51.140;6.290;2023-07-31T01:44:20;100366.28;;;19.85;85.88
25232;BME280;13176;51.140;6.290;2023-07-31T01:46:46;100443.63;;;20.22;86.26
25232;BME280;13176;51.140;6.290;2023-07-31T01:49:13;100265.72;;;19.23;86.44
25232;BME280;13176;51.140;6.290;2023-07-31T01:51:56;100314.38;;;19.52;86.29
25232;BME280;13176;51.140;6.290;2023-07-31T01:54:23;100420.13;;;20.16;86.46
25232;BME280;13176;51.140;6.290;2023-07-31T01:56:52;100340.16;;;19.94;85.77
25232;BME280;13176;51.140;6.290;2023-07-31T01:59:18;100418.53;;;20.43;84.97
25232;BME280;13176;51.140;6.290;2023-07-31T02:01:45;100193.16;;;19.12;85.14
25232;BME280;13176;51.140;6.290;2023-07-31T02:04:11;100287.91;;;19.67;85.19
25232;BME280;13176;51.140;6.290;2023-07-31T02:06:39;100326.31;;;20.05;85.42
25232;BME280;13176;51.140;6.290;2023-07-31T02:09:06;100231.66;;;19.33;85.58
25232;BME280;13176;51.140;6.290;2023-07-31T02:11:35;100317.47;;;20.04;85.25
25232;BME280;13176;51.140;6.290;2023-07-31T02:14:02;100412.69;;;20.52;85.47
25232;BME280;13176;51.140;6.290;2023-07-31T02:16:29;100371.38;;;20.34;85.52
25232;BME280;13176;51.140;6.290;2023-07-31T02:18:56;100376.28;;;20.40;85.64
25232;BME280;13176;51.140;6.290;2023-07-31T02:21:22;100383.63;;;20.51;85.64
25232;BME280;13176;51.140;6.290;2023-07-31T02:23:52;100196.91;;;19.39;85.51
25232;BME280;13176;51.140;6.290;2023-07-31T02:26:21;100210.56;;;19.47;85.95
25232;BME280;13176;51.140;6.290;2023-07-31T02:28:47;100221.16;;;19.47;85.71
25232;BME280;13176;51.140;6.290;2023-07-31T02:31:16;100384.63;;;20.48;85.87
25232;BME280;13176;51.140;6.290;2023-07-31T02:33:45;100330.19;;;20.13;86.16
25232;BME280;13176;51.140;6.290;2023-07-31T02:36:12;100299.28;;;20.14;85.73
25232;BME280;13176;51.140;6.290;2023-07-31T02:38:38;100393.41;;;20.64;85.58
25232;BME280;13176;51.140;6.290;2023-07-31T02:41:05;100358.63;;;20.55;85.42
25232;BME280;13176;51.140;6.290;2023-07-31T02:43:31;100261.19;;;19.85;85.14
25232;BME280;13176;51.140;6.290;2023-07-31T02:46:00;100311.69;;;20.27;85.01
25232;BME280;13176;51.140;6.290;2023-07-31T02:48:27;100279.28;;;20.08;84.91
25232;BME280;13176;51.140;6.290;2023-07-31T02:50:53;100375.38;;;20.55;85.34
25232;BME280;13176;51.140;6.290;2023-07-31T02:53:20;100378.84;;;20.71;85.05
25232;BME280;13176;51.140;6.290;2023-07-31T02:55:46;100290.84;;;20.21;85.12
25232;BME280;13176;51.140;6.290;2023-07-31T02:58:12;100371.25;;;20.65;85.59
25232;BME280;13176;51.140;6.290;2023-07-31T03:00:43;100264.34;;;19.92;85.12
25232;BME280;13176;51.140;6.290;2023-07-31T03:03:12;100192.38;;;19.41;85.56
25232;BME280;13176;51.140;6.290;2023-07-31T03:05:39;100309.81;;;20.29;85.10
25232;BME280;13176;51.140;6.290;2023-07-31T03:08:05;100230.38;;;19.84;84.39
25232;BME280;13176;51.140;6.290;2023-07-31T03:10:32;100238.28;;;20.00;84.09
25232;BME280;13176;51.140;6.290;2023-07-31T03:12:58;100382.66;;;20.81;83.95
25232;BME280;13176;51.140;6.290;2023-07-31T03:15:25;100350.19;;;20.48;84.77
25232;BME280;13176;51.140;6.290;2023-07-31T03:17:53;100204.22;;;19.64;84.88
25232;BME280;13176;51.140;6.290;2023-07-31T03:20:19;100248.03;;;19.99;84.83
25232;BME280;13176;51.140;6.290;2023-07-31T03:22:48;100291.66;;;20.37;83.83
25232;BME280;13176;51.140;6.290;2023-07-31T03:25:15;100352.88;;;20.76;84.07
25232;BME280;13176;51.140;6.290;2023-07-31T03:27:41;100253.94;;;20.18;83.82
25232;BME280;13176;51.140;6.290;2023-07-31T03:30:09;100342.47;;;20.73;83.36
25232;BME280;13176;51.140;6.290;2023-07-31T03:32:36;100229.88;;;20.07;84.09
25232;BME280;13176;51.140;6.290;2023-07-31T03:35:03;100272.53;;;20.32;84.06
25232;BME280;13176;51.140;6.290;2023-07-31T03:37:31;100355.38;;;20.93;83.66
25232;BME280;13176;51.140;6.290;2023-07-31T03:39:58;100343.25;;;20.89;83.47
25232;BME280;13176;51.140;6.290;2023-07-31T03:42:24;100282.75;;;20.38;84.76
25232;BME280;13176;51.140;6.290;2023-07-31T03:44:51;100341.31;;;20.77;84.81
25232;BME280;13176;51.140;6.290;2023-07-31T03:47:17;100211.63;;;20.03;83.84
25232;BME280;13176;51.140;6.290;2023-07-31T03:49:44;100233.09;;;20.12;84.38
25232;BME280;13176;51.140;6.290;2023-07-31T03:52:10;100329.28;;;20.71;85.04
25232;BME280;13176;51.140;6.290;2023-07-31T03:54:36;100158.84;;;19.84;83.97
25232;BME280;13176;51.140;6.290;2023-07-31T03:57:03;100169.56;;;19.97;84.22
25232;BME280;13176;51.140;6.290;2023-07-31T03:59:30;100341.38;;;20.91;84.28
25232;BME280;13176;51.140;6.290;2023-07-31T04:01:56;100256.97;;;20.40;84.92
25232;BME280;13176;51.140;6.290;2023-07-31T04:04:23;100343.38;;;20.87;84.47
25232;BME280;13176;51.140;6.290;2023-07-31T04:06:49;100343.66;;;20.97;83.75
25232;BME280;13176;51.140;6.290;2023-07-31T04:09:15;100240.34;;;20.38;83.88
25232;BME280;13176;51.140;6.290;2023-07-31T04:11:42;100235.03;;;20.24;84.82
25232;BME280;13176;51.140;6.290;2023-07-31T04:14:09;100321.84;;;20.92;83.86
25232;BME280;13176;51.140;6.290;2023-07-31T04:16:35;100190.31;;;20.04;84.40
25232;BME280;13176;51.140;6.290;2023-07-31T04:19:03;100317.44;;;20.77;84.29
25232;BME280;13176;51.140;6.290;2023-07-31T04:21:30;100221.47;;;20.15;85.38
25232;BME280;13176;51.140;6.290;2023-07-31T04:23:56;100251.34;;;20.60;83.77
25232;BME280;13176;51.140;6.290;2023-07-31T04:26:30;100182.00;;;20.10;83.81
25232;BME280;13176;51.140;6.290;2023-07-31T04:28:56;100314.44;;;20.97;83.83
25232;BME280;13176;51.140;6.290;2023-07-31T04:31:23;100245.84;;;20.63;83.55
25232;BME280;13176;51.140;6.290;2023-07-31T04:33:49;100305.56;;;20.98;84.03
25232;BME280;13176;51.140;6.290;2023-07-31T04:36:16;100245.75;;;20.51;84.48
25232;BME280;13176;51.140;6.290;2023-07-31T04:38:42;100315.78;;;21.04;83.39
25232;BME280;13176;51.140;6.290;2023-07-31T04:41:11;100280.53;;;20.74;84.08
25232;BME280;13176;51.140;6.290;2023-07-31T04:43:37;100296.81;;;20.96;83.36
25232;BME280;13176;51.140;6.290;2023-07-31T04:46:05;100197.72;;;20.41;83.03
25232;BME280;13176;51.140;6.290;2023-07-31T04:48:32;100281.75;;;20.96;82.88
25232;BME280;13176;51.140;6.290;2023-07-31T04:50:58;100278.63;;;21.04;82.89
25232;BME280;13176;51.140;6.290;2023-07-31T04:53:24;100241.69;;;20.87;82.39
25232;BME280;13176;51.140;6.290;2023-07-31T04:55:51;100166.50;;;20.32;82.36
25232;BME280;13176;51.140;6.290;2023-07-31T04:58:17;100282.44;;;21.00;82.65
25232;BME280;13176;51.140;6.290;2023-07-31T05:00:44;100261.13;;;20.87;82.69
25232;BME280;13176;51.140;6.290;2023-07-31T05:03:12;100260.44;;;20.84;83.05
25232;BME280;13176;51.140;6.290;2023-07-31T05:05:41;100228.13;;;20.64;83.22
25232;BME280;13176;51.140;6.290;2023-07-31T05:08:08;100266.50;;;20.86;83.27
25232;BME280;13176;51.140;6.290;2023-07-31T05:10:34;100271.81;;;21.00;82.43
25232;BME280;13176;51.140;6.290;2023-07-31T05:13:01;100180.88;;;20.56;81.92
25232;BME280;13176;51.140;6.290;2023-07-31T05:15:31;100250.47;;;21.01;81.39
25232;BME280;13176;51.140;6.290;2023-07-31T05:17:57;100268.91;;;21.17;81.37
25232;BME280;13176;51.140;6.290;2023-07-31T05:20:24;100228.78;;;21.09;81.22
25232;BME280;13176;51.140;6.290;2023-07-31T05:22:51;100190.53;;;20.71;81.66
25232;BME280;13176;51.140;6.290;2023-07-31T05:25:17;100256.22;;;21.22;81.34
25232;BME280;13176;51.140;6.290;2023-07-31T05:27:44;100232.19;;;21.11;80.90
25232;BME280;13176;51.140;6.290;2023-07-31T05:30:10;100226.13;;;21.09;80.82
25232;BME280;13176;51.140;6.290;2023-07-31T05:32:36;100258.31;;;21.17;80.99
25232;BME280;13176;51.140;6.290;2023-07-31T05:35:03;100225.19;;;20.82;82.69
25232;BME280;13176;51.140;6.290;2023-07-31T05:37:30;100175.41;;;20.31;84.93
25232;BME280;13176;51.140;6.290;2023-07-31T05:39:56;100259.84;;;20.65;86.16
25232;BME280;13176;51.140;6.290;2023-07-31T05:42:23;100239.38;;;20.25;90.41
25232;BME280;13176;51.140;6.290;2023-07-31T05:44:52;100234.41;;;20.05;92.01
25232;BME280;13176;51.140;6.290;2023-07-31T05:47:18;100117.50;;;19.39;92.03
25232;BME280;13176;51.140;6.290;2023-07-31T05:49:45;100256.53;;;20.04;94.96
25232;BME280;13176;51.140;6.290;2023-07-31T05:52:11;100238.44;;;19.97;95.40
25232;BME280;13176;51.140;6.290;2023-07-31T05:54:38;100235.38;;;19.89;96.32
25232;BME280;13176;51.140;6.290;2023-07-31T05:57:04;100239.34;;;19.82;97.70
25232;BME280;13176;51.140;6.290;2023-07-31T05:59:31;100235.19;;;19.78;98.91
25232;BME280;13176;51.140;6.290;2023-07-31T06:01:59;100214.13;;;19.61;98.61
25232;BME280;13176;51.140;6.290;2023-07-31T06:04:25;100124.56;;;19.09;100.00
25232;BME280;13176;51.140;6.290;2023-07-31T06:06:52;100210.00;;;19.71;99.49
25232;BME280;13176;51.140;6.290;2023-07-31T06:09:18;100127.47;;;19.20;100.00
25232;BME280;13176;51.140;6.290;2023-07-31T06:11:46;100214.13;;;19.61;100.00
25232;BME280;13176;51.140;6.290;2023-07-31T06:14:13;100228.06;;;19.78;100.00
25232;BME280;13176;51.140;6.290;2023-07-31T06:16:39;100103.25;;;18.96;100.00
25232;BME280;13176;51.140;6.290;2023-07-31T06:19:07;100222.16;;;19.59;100.00
25232;BME280;13176;51.140;6.290;2023-07-31T06:21:35;100211.16;;;19.52;100.00
25232;BME280;13176;51.140;6.290;2023-07-31T06:24:05;100175.03;;;19.51;100.00
25232;BME280;13176;51.140;6.290;2023-07-31T06:26:31;100202.19;;;19.39;100.00
25232;BME280;13176;51.140;6.290;2023-07-31T06:28:58;100121.44;;;19.18;100.00
25232;BME280;13176;51.140;6.290;2023-07-31T06:31:25;100132.59;;;19.23;100.00
25232;BME280;13176;51.140;6.290;2023-07-31T06:33:52;100169.28;;;19.29;100.00
25232;BME280;13176;51.140;6.290;2023-07-31T06:36:18;100101.56;;;18.80;100.00
25232;BME280;13176;51.140;6.290;2023-07-31T06:38:47;100051.25;;;18.81;100.00
25232;BME280;13176;51.140;6.290;2023-07-31T06:41:14;100218.81;;;19.85;99.61
25232;BME280;13176;51.140;6.290;2023-07-31T06:43:40;100211.28;;;19.93;99.07
25232;BME280;13176;51.140;6.290;2023-07-31T06:46:07;100228.88;;;19.94;98.86
25232;BME280;13176;51.140;6.290;2023-07-31T06:48:34;100224.09;;;20.01;98.50
25232;BME280;13176;51.140;6.290;2023-07-31T06:51:01;100259.41;;;20.15;98.66
25232;BME280;13176;51.140;6.290;2023-07-31T06:53:28;100167.63;;;19.71;97.88
25232;BME280;13176;51.140;6.290;2023-07-31T06:55:55;100269.06;;;20.02;98.35
25232;BME280;13176;51.140;6.290;2023-07-31T06:58:21;100197.81;;;19.82;97.53
25232;BME280;13176;51.140;6.290;2023-07-31T07:00:48;100175.63;;;19.69;97.50
25232;BME280;13176;51.140;6.290;2023-07-31T07:03:18;100266.81;;;20.24;98.07
25232;BME280;13176;51.140;6.290;2023-07-31T07:05:45;100065.72;;;19.05;98.45
25232;BME280;13176;51.140;6.290;2023-07-31T07:08:11;100225.00;;;19.70;100.00
25232;BME280;13176;51.140;6.290;2023-07-31T07:10:38;100255.91;;;19.85;100.00
25232;BME280;13176;51.140;6.290;2023-07-31T07:13:04;100213.09;;;19.63;100.00
25232;BME280;13176;51.140;6.290;2023-07-31T07:15:31;100190.97;;;19.20;100.00
25232;BME280;13176;51.140;6.290;2023-07-31T07:17:57;100265.56;;;19.42;100.00
25232;BME280;13176;51.140;6.290;2023-07-31T07:20:23;100245.75;;;19.49;100.00
25232;BME280;13176;51.140;6.290;2023-07-31T07:22:50;100144.34;;;19.02;100.00
25232;BME280;13176;51.140;6.290;2023-07-31T07:25:17;100212.97;;;19.36;100.00
25232;BME280;13176;51.140;6.290;2023-07-31T07:27:43;100238.72;;;19.48;100.00
25232;BME280;13176;51.140;6.290;2023-07-31T07:30:10;100170.28;;;19.11;100.00
25232;BME280;13176;51.140;6.290;2023-07-31T07:32:36;100103.53;;;18.76;100.00
25232;BME280;13176;51.140;6.290;2023-07-31T07:35:03;100246.56;;;19.64;100.00
25232;BME280;13176;51.140;6.290;2023-07-31T07:37:30;100226.50;;;19.60;100.00
25232;BME280;13176;51.140;6.290;2023-07-31T07:39:59;100159.06;;;19.23;100.00
25232;BME280;13176;51.140;6.290;2023-07-31T07:42:25;100159.28;;;19.34;100.00
25232;BME280;13176;51.140;6.290;2023-07-31T07:44:52;100220.81;;;19.52;100.00
25232;BME280;13176;51.140;6.290;2023-07-31T07:47:18;100156.59;;;19.20;100.00
25232;BME280;13176;51.140;6.290;2023-07-31T07:49:45;100151.88;;;19.25;100.00
25232;BME280;13176;51.140;6.290;2023-07-31T07:52:18;100204.31;;;19.48;100.00
25232;BME280;13176;51.140;6.290;2023-07-31T07:54:44;100206.44;;;19.56;100.00
25232;BME280;13176;51.140;6.290;2023-07-31T07:57:11;100149.41;;;19.22;100.00
25232;BME280;13176;51.140;6.290;2023-07-31T07:59:37;100124.84;;;19.04;100.00
25232;BME280;13176;51.140;6.290;2023-07-31T08:02:04;100179.84;;;19.44;100.00
25232;BME280;13176;51.140;6.290;2023-07-31T08:04:30;100157.34;;;19.22;100.00
25232;BME280;13176;51.140;6.290;2023-07-31T08:06:57;100191.69;;;19.82;100.00
25232;BME280;13176;51.140;6.290;2023-07-31T08:09:23;100135.50;;;19.48;100.00
25232;BME280;13176;51.140;6.290;2023-07-31T08:11:50;100145.38;;;19.73;99.25
25232;BME280;13176;51.140;6.290;2023-07-31T08:14:16;100015.53;;;19.04;99.45
25232;BME280;13176;51.140;6.290;2023-07-31T08:16:43;100096.31;;;19.68;99.66
25232;BME280;13176;51.140;6.290;2023-07-31T08:19:10;100113.25;;;19.79;97.88
25232;BME280;13176;51.140;6.290;2023-07-31T08:21:37;100140.75;;;20.20;97.98
25232;BME280;13176;51.140;6.290;2023-07-31T08:24:03;100041.53;;;19.68;96.82
25232;BME280;13176;51.140;6.290;2023-07-31T08:26:32;100127.47;;;20.06;97.36
25232;BME280;13176;51.140;6.290;2023-07-31T08:28:59;100043.84;;;19.60;97.67
25232;BME280;13176;51.140;6.290;2023-07-31T08:31:25;100052.28;;;19.38;99.71
25232;BME280;13176;51.140;6.290;2023-07-31T08:33:56;100102.47;;;19.82;99.85
25232;BME280;13176;51.140;6.290;2023-07-31T08:36:22;100024.00;;;19.24;100.00
25232;BME280;13176;51.140;6.290;2023-07-31T08:38:49;100147.94;;;20.18;99.63
25232;BME280;13176;51.140;6.290;2023-07-31T08:41:16;100195.63;;;20.18;100.00
25232;BME280;13176;51.140;6.290;2023-07-31T08:43:47;100089.41;;;19.65;100.00
25232;BME280;13176;51.140;6.290;2023-07-31T08:46:15;100011.34;;;19.15;100.00
25232;BME280;13176;51.140;6.290;2023-07-31T08:48:43;100092.34;;;19.75;99.86
25232;BME280;13176;51.140;6.290;2023-07-31T08:51:10;100138.56;;;19.69;100.00
25232;BME280;13176;51.140;6.290;2023-07-31T08:53:37;100160.94;;;19.93;100.00
25232;BME280;13176;51.140;6.290;2023-07-31T08:56:05;100194.03;;;20.30;100.00
25232;BME280;13176;51.140;6.290;2023-07-31T08:58:32;100150.50;;;20.20;100.00
25232;BME280;13176;51.140;6.290;2023-07-31T09:01:01;100165.75;;;20.30;99.70
25232;BME280;13176;51.140;6.290;2023-07-31T09:03:33;100103.59;;;19.64;100.00
25232;BME280;13176;51.140;6.290;2023-07-31T09:06:00;100143.88;;;20.13;100.00
25232;BME280;13176;51.140;6.290;2023-07-31T09:08:30;100009.50;;;19.45;100.00
25232;BME280;13176;51.140;6.290;2023-07-31T09:11:02;100178.81;;;20.33;100.00
25232;BME280;13176;51.140;6.290;2023-07-31T09:13:30;100099.78;;;19.68;100.00
25232;BME280;13176;51.140;6.290;2023-07-31T09:15:57;100045.81;;;19.43;100.00
25232;BME280;13176;51.140;6.290;2023-07-31T09:18:24;100174.53;;;20.17;100.00
25232;BME280;13176;51.140;6.290;2023-07-31T09:21:06;100191.06;;;20.06;100.00
25232;BME280;13176;51.140;6.290;2023-07-31T09:23:44;100114.50;;;19.74;100.00
25232;BME280;13176;51.140;6.290;2023-07-31T09:26:11;100189.00;;;20.11;100.00
25232;BME280;13176;51.140;6.290;2023-07-31T09:28:38;100156.09;;;20.01;100.00
25232;BME280;13176;51.140;6.290;2023-07-31T09:31:04;100135.59;;;19.89;100.00
25232;BME280;13176;51.140;6.290;2023-07-31T09:33:32;100119.66;;;19.61;100.00
25232;BME280;13176;51.140;6.290;2023-07-31T09:35:59;100050.50;;;19.38;100.00
25232;BME280;13176;51.140;6.290;2023-07-31T09:38:27;100133.53;;;19.94;100.00
25232;BME280;13176;51.140;6.290;2023-07-31T09:40:53;100143.13;;;19.81;100.00
25232;BME280;13176;51.140;6.290;2023-07-31T09:43:21;100166.69;;;20.01;100.00
25232;BME280;13176;51.140;6.290;2023-07-31T09:45:54;100153.06;;;20.21;100.00
25232;BME280;13176;51.140;6.290;2023-07-31T09:48:24;100118.41;;;20.10;100.00
25232;BME280;13176;51.140;6.290;2023-07-31T09:50:54;100104.41;;;20.08;100.00
25232;BME280;13176;51.140;6.290;2023-07-31T09:53:28;100062.25;;;19.62;100.00
25232;BME280;13176;51.140;6.290;2023-07-31T09:55:58;100152.69;;;20.27;100.00
25232;BME280;13176;51.140;6.290;2023-07-31T09:58:28;100035.88;;;19.74;100.00
25232;BME280;13176;51.140;6.290;2023-07-31T10:00:57;100125.59;;;20.08;100.00
25232;BME280;13176;51.140;6.290;2023-07-31T10:03:25;100161.38;;;20.29;100.00
25232;BME280;13176;51.140;6.290;2023-07-31T10:05:55;100055.25;;;19.61;100.00
25232;BME280;13176;51.140;6.290;2023-07-31T10:08:27;100095.81;;;20.05;100.00
25232;BME280;13176;51.140;6.290;2023-07-31T10:10:59;100022.66;;;19.88;100.00
25232;BME280;13176;51.140;6.290;2023-07-31T10:13:27;100071.72;;;20.36;99.82
25232;BME280;13176;51.140;6.290;2023-07-31T10:15:58;100143.56;;;20.59;99.44
25232;BME280;13176;51.140;6.290;2023-07-31T10:18:26;100058.09;;;20.28;98.69
25232;BME280;13176;51.140;6.290;2023-07-31T10:20:53;100026.22;;;20.15;99.32
25232;BME280;13176;51.140;6.290;2023-07-31T10:23:22;100122.34;;;20.59;98.22
25232;BME280;13176;51.140;6.290;2023-07-31T10:25:49;100091.84;;;20.66;98.11
25232;BME280;13176;51.140;6.290;2023-07-31T10:28:16;100129.50;;;20.85;97.89
25232;BME280;13176;51.140;6.290;2023-07-31T10:30:44;100126.81;;;20.99;97.76
25232;BME280;13176;51.140;6.290;2023-07-31T10:33:12;100139.56;;;20.66;98.47
25232;BME280;13176;51.140;6.290;2023-07-31T10:35:38;100126.88;;;20.71;98.12
25232;BME280;13176;51.140;6.290;2023-07-31T10:38:12;100091.28;;;20.47;97.15
25232;BME280;13176;51.140;6.290;2023-07-31T10:40:38;100130.50;;;20.96;96.40
25232;BME280;13176;51.140;6.290;2023-07-31T10:43:05;100139.72;;;20.91;97.37
25232;BME280;13176;51.140;6.290;2023-07-31T10:45:38;100142.94;;;20.96;97.56
25232;BME280;13176;51.140;6.290;2023-07-31T10:48:15;100148.97;;;21.12;96.86
25232;BME280;13176;51.140;6.290;2023-07-31T10:50:51;99984.22;;;20.09;96.93
25232;BME280;13176;51.140;6.290;2023-07-31T10:53:26;100123.41;;;20.97;96.12
25232;BME280;13176;51.140;6.290;2023-07-31T10:55:53;100059.69;;;20.44;95.73
25232;BME280;13176;51.140;6.290;2023-07-31T10:58:24;100113.00;;;20.94;96.11
25232;BME280;13176;51.140;6.290;2023-07-31T11:00:55;100143.75;;;20.96;95.41
25232;BME280;13176;51.140;6.290;2023-07-31T11:03:25;100112.59;;;21.00;94.75
25232;BME280;13176;51.140;6.290;2023-07-31T11:08:25;100079.13;;;20.97;94.23
25232;BME280;13176;51.140;6.290;2023-07-31T11:15:55;100130.28;;;21.26;93.48
25232;BME280;13176;51.140;6.290;2023-07-31T11:18:21;100044.53;;;20.72;92.95
25232;BME280;13176;51.140;6.290;2023-07-31T11:20:48;100141.19;;;21.09;93.14
25232;BME280;13176;51.140;6.290;2023-07-31T11:23:16;100153.63;;;21.21;93.39
25232;BME280;13176;51.140;6.290;2023-07-31T11:25:43;100110.34;;;20.94;92.96
25232;BME280;13176;51.140;6.290;2023-07-31T11:28:15;100125.47;;;21.45;92.12
25232;BME280;13176;51.140;6.290;2023-07-31T11:30:42;100122.63;;;21.09;92.90
25232;BME280;13176;51.140;6.290;2023-07-31T11:33:11;100114.56;;;21.23;92.59
25232;BME280;13176;51.140;6.290;2023-07-31T11:35:47;100120.38;;;21.42;92.96
25232;BME280;13176;51.140;6.290;2023-07-31T11:40:49;100060.06;;;21.44;91.28
25232;BME280;13176;51.140;6.290;2023-07-31T11:43:16;99954.00;;;20.52;91.00
25232;BME280;13176;51.140;6.290;2023-07-31T11:45:51;100100.06;;;21.28;90.31
25232;BME280;13176;51.140;6.290;2023-07-31T11:48:29;100120.38;;;21.42;90.79
25232;BME280;13176;51.140;6.290;2023-07-31T11:51:01;100108.97;;;21.27;91.07
25232;BME280;13176;51.140;6.290;2023-07-31T11:56:08;100027.66;;;20.87;91.10
25232;BME280;13176;51.140;6.290;2023-07-31T11:58:37;100037.81;;;20.81;91.79
25232;BME280;13176;51.140;6.290;2023-07-31T12:01:05;100127.00;;;21.22;92.98
25232;BME280;13176;51.140;6.290;2023-07-31T12:03:32;100040.81;;;20.89;93.29
25232;BME280;13176;51.140;6.290;2023-07-31T12:05:59;100100.38;;;21.36;92.76
25232;BME280;13176;51.140;6.290;2023-07-31T12:08:26;100117.03;;;20.99;95.25
25232;BME280;13176;51.140;6.290;2023-07-31T12:10:53;100135.81;;;21.23;95.61
25232;BME280;13176;51.140;6.290;2023-07-31T12:13:25;100069.78;;;21.18;95.06
25232;BME280;13176;51.140;6.290;2023-07-31T12:15:57;100110.13;;;21.62;95.38
25232;BME280;13176;51.140;6.290;2023-07-31T12:18:25;100087.44;;;21.57;94.51
25232;BME280;13176;51.140;6.290;2023-07-31T12:21:01;100097.63;;;21.38;95.55
25232;BME280;13176;51.140;6.290;2023-07-31T12:23:30;100115.25;;;21.78;94.77
25232;BME280;13176;51.140;6.290;2023-07-31T12:26:10;100109.59;;;21.94;93.90
25232;BME280;13176;51.140;6.290;2023-07-31T12:28:42;100110.25;;;22.10;92.30
25232;BME280;13176;51.140;6.290;2023-07-31T12:31:10;100009.69;;;21.55;93.77
25232;BME280;13176;51.140;6.290;2023-07-31T12:33:39;100023.31;;;21.63;91.87
25232;BME280;13176;51.140;6.290;2023-07-31T12:36:14;100111.72;;;22.27;91.80
25232;BME280;13176;51.140;6.290;2023-07-31T12:38:42;100062.41;;;22.10;90.98
25232;BME280;13176;51.140;6.290;2023-07-31T12:41:08;100102.88;;;22.51;90.66
25232;BME280;13176;51.140;6.290;2023-07-31T12:43:39;100102.56;;;22.43;89.15
25232;BME280;13176;51.140;6.290;2023-07-31T12:46:07;100066.13;;;21.95;89.05
25232;BME280;13176;51.140;6.290;2023-07-31T12:48:38;100025.84;;;21.89;88.78
25232;BME280;13176;51.140;6.290;2023-07-31T12:51:04;100059.09;;;21.94;88.99
25232;BME280;13176;51.140;6.290;2023-07-31T12:53:32;100052.59;;;22.11;88.59
25232;BME280;13176;51.140;6.290;2023-07-31T12:55:59;99953.31;;;21.64;88.16
25232;BME280;13176;51.140;6.290;2023-07-31T12:58:25;99999.69;;;22.31;87.50
25232;BME280;13176;51.140;6.290;2023-07-31T13:00:52;100033.41;;;22.43;85.23
25232;BME280;13176;51.140;6.290;2023-07-31T13:03:18;99949.72;;;22.36;84.98
25232;BME280;13176;51.140;6.290;2023-07-31T13:05:45;100021.47;;;22.96;84.42
25232;BME280;13176;51.140;6.290;2023-07-31T13:08:11;100032.81;;;23.10;83.59